sensor_id;sensor_type;location;lat;lon;timestamp;pressure;altitude;pressure_sealevel;temperature;humidity
80102;BME280;69407;44.966;19.622;2024-03-02T00:01:41;100194.03;;;9.91;100.00
80102;BME280;69407;44.966;19.622;2024-03-02T00:04:07;100191.19;;;9.96;100.00
80102;BME280;69407;44.966;19.622;2024-03-02T00:06:33;100201.72;;;9.96;100.00
80102;BME280;69407;44.966;19.622;2024-03-02T00:09:00;100197.22;;;9.98;100.00
80102;BME280;69407;44.966;19.622;2024-03-02T00:11:25;100197.19;;;9.81;100.00
80102;BME280;69407;44.966;19.622;2024-03-02T00:13:53;100193.72;;;9.97;100.00
80102;BME280;69407;44.966;19.622;2024-03-02T00:16:19;100185.66;;;10.01;100.00
80102;BME280;69407;44.966;19.622;2024-03-02T00:18:45;100186.53;;;10.18;100.00
80102;BME280;69407;44.966;19.622;2024-03-02T00:21:10;100195.06;;;10.06;100.00
80102;BME280;69407;44.966;19.622;2024-03-02T00:23:36;100188.88;;;10.24;100.00
80102;BME280;69407;44.966;19.622;2024-03-02T00:26:02;100193.81;;;9.96;100.00
80102;BME280;69407;44.966;19.622;2024-03-02T00:28:36;100196.53;;;9.94;100.00
80102;BME280;69407;44.966;19.622;2024-03-02T00:33:40;100196.97;;;10.03;100.00
80102;BME280;69407;44.966;19.622;2024-03-02T00:36:07;100195.19;;;10.03;100.00
80102;BME280;69407;44.966;19.622;2024-03-02T00:38:34;100200.03;;;10.47;100.00
80102;BME280;69407;44.966;19.622;2024-03-02T00:41:07;100191.66;;;10.21;100.00
80102;BME280;69407;44.966;19.622;2024-03-02T00:43:42;100200.28;;;10.25;100.00
80102;BME280;69407;44.966;19.622;2024-03-02T00:46:11;100200.78;;;10.14;100.00
80102;BME280;69407;44.966;19.622;2024-03-02T00:48:38;100210.81;;;10.08;100.00
80102;BME280;69407;44.966;19.622;2024-03-02T00:51:04;100214.16;;;10.11;100.00
80102;BME280;69407;44.966;19.622;2024-03-02T00:53:31;100210.94;;;10.23;100.00
80102;BME280;69407;44.966;19.622;2024-03-02T00:55:58;100202.69;;;10.30;100.00
80102;BME280;69407;44.966;19.622;2024-03-02T00:58:24;100208.28;;;10.23;100.00
80102;BME280;69407;44.966;19.622;2024-03-02T01:00:49;100210.25;;;10.01;100.00
80102;BME280;69407;44.966;19.622;2024-03-02T01:03:15;100208.09;;;10.09;100.00
80102;BME280;69407;44.966;19.622;2024-03-02T01:05:44;100204.25;;;10.34;100.00
80102;BME280;69407;44.966;19.622;2024-03-02T01:08:10;100196.47;;;10.48;100.00
80102;BME280;69407;44.966;19.622;2024-03-02T01:10:36;100200.59;;;10.36;100.00
80102;BME280;69407;44.966;19.622;2024-03-02T01:13:01;100200.91;;;10.30;100.00
80102;BME280;69407;44.966;19.622;2024-03-02T01:15:27;100203.16;;;10.38;100.00
80102;BME280;69407;44.966;19.622;2024-03-02T01:17:52;100208.56;;;10.69;100.00
80102;BME280;69407;44.966;19.622;2024-03-02T01:20:18;100205.00;;;10.53;100.00
80102;BME280;69407;44.966;19.622;2024-03-02T01:22:43;100203.75;;;10.60;100.00
80102;BME280;69407;44.966;19.622;2024-03-02T01:25:09;100204.84;;;10.39;100.00
80102;BME280;69407;44.966;19.622;2024-03-02T01:27:34;100200.50;;;10.55;100.00
80102;BME280;69407;44.966;19.622;2024-03-02T01:30:00;100200.16;;;10.61;100.00
80102;BME280;69407;44.966;19.622;2024-03-02T01:32:25;100195.81;;;10.60;100.00
80102;BME280;69407;44.966;19.622;2024-03-02T01:34:51;100186.31;;;10.73;100.00
80102;BME280;69407;44.966;19.622;2024-03-02T01:37:16;100189.13;;;10.53;100.00
80102;BME280;69407;44.966;19.622;2024-03-02T01:39:42;100190.69;;;10.57;100.00
80102;BME280;69407;44.966;19.622;2024-03-02T01:42:07;100184.56;;;10.39;100.00
80102;BME280;69407;44.966;19.622;2024-03-02T01:44:33;100190.06;;;10.52;100.00
80102;BME280;69407;44.966;19.622;2024-03-02T01:46:58;100193.22;;;10.43;100.00
80102;BME280;69407;44.966;19.622;2024-03-02T01:49:24;100190.63;;;10.59;100.00
80102;BME280;69407;44.966;19.622;2024-03-02T01:51:49;100174.63;;;10.77;100.00
80102;BME280;69407;44.966;19.622;2024-03-02T01:54:15;100182.00;;;10.55;100.00
80102;BME280;69407;44.966;19.622;2024-03-02T01:56:40;100170.50;;;10.56;100.00
80102;BME280;69407;44.966;19.622;2024-03-02T01:59:06;100171.91;;;10.46;100.00
80102;BME280;69407;44.966;19.622;2024-03-02T02:01:31;100183.84;;;10.53;100.00
80102;BME280;69407;44.966;19.622;2024-03-02T02:03:57;100174.09;;;10.38;100.00
80102;BME280;69407;44.966;19.622;2024-03-02T02:06:23;100171.19;;;10.60;100.00
80102;BME280;69407;44.966;19.622;2024-03-02T02:08:48;100169.88;;;10.51;100.00
80102;BME280;69407;44.966;19.622;2024-03-02T02:11:17;100166.00;;;10.58;100.00
80102;BME280;69407;44.966;19.622;2024-03-02T02:13:42;100168.16;;;10.50;100.00
80102;BME280;69407;44.966;19.622;2024-03-02T02:16:08;100173.53;;;10.48;100.00
80102;BME280;69407;44.966;19.622;2024-03-02T02:18:34;100177.72;;;10.52;100.00
80102;BME280;69407;44.966;19.622;2024-03-02T02:21:01;100168.94;;;10.85;100.00
80102;BME280;69407;44.966;19.622;2024-03-02T02:23:27;100176.94;;;10.50;100.00
80102;BME280;69407;44.966;19.622;2024-03-02T02:25:52;100179.00;;;10.28;100.00
80102;BME280;69407;44.966;19.622;2024-03-02T02:28:18;100167.94;;;10.54;100.00
80102;BME280;69407;44.966;19.622;2024-03-02T02:30:43;100175.13;;;10.35;100.00
80102;BME280;69407;44.966;19.622;2024-03-02T02:33:09;100172.16;;;10.24;100.00
80102;BME280;69407;44.966;19.622;2024-03-02T02:35:34;100180.31;;;10.19;100.00
80102;BME280;69407;44.966;19.622;2024-03-02T02:38:00;100173.72;;;10.28;100.00
80102;BME280;69407;44.966;19.622;2024-03-02T02:40:27;100172.59;;;10.49;100.00
80102;BME280;69407;44.966;19.622;2024-03-02T02:42:58;100173.06;;;10.57;100.00
80102;BME280;69407;44.966;19.622;2024-03-02T02:45:24;100174.81;;;10.24;100.00
80102;BME280;69407;44.966;19.622;2024-03-02T02:47:50;100182.31;;;10.49;100.00
80102;BME280;69407;44.966;19.622;2024-03-02T02:50:16;100180.69;;;10.29;100.00
80102;BME280;69407;44.966;19.622;2024-03-02T02:52:42;100183.66;;;10.23;100.00
80102;BME280;69407;44.966;19.622;2024-03-02T02:55:10;100180.56;;;10.32;100.00
80102;BME280;69407;44.966;19.622;2024-03-02T02:57:37;100177.53;;;10.22;100.00
80102;BME280;69407;44.966;19.622;2024-03-02T03:02:38;100180.31;;;10.19;100.00
80102;BME280;69407;44.966;19.622;2024-03-02T03:05:05;100195.22;;;10.20;100.00
80102;BME280;69407;44.966;19.622;2024-03-02T03:07:31;100185.13;;;10.11;100.00
80102;BME280;69407;44.966;19.622;2024-03-02T03:09:57;100185.50;;;10.38;100.00
80102;BME280;69407;44.966;19.622;2024-03-02T03:12:23;100188.94;;;10.23;100.00
80102;BME280;69407;44.966;19.622;2024-03-02T03:14:48;100187.69;;;9.95;100.00
80102;BME280;69407;44.966;19.622;2024-03-02T03:17:14;100189.16;;;10.01;100.00
80102;BME280;69407;44.966;19.622;2024-03-02T03:19:40;100192.03;;;9.96;100.00
80102;BME280;69407;44.966;19.622;2024-03-02T03:22:05;100191.63;;;9.87;100.00
80102;BME280;69407;44.966;19.622;2024-03-02T03:24:31;100181.00;;;10.06;100.00
80102;BME280;69407;44.966;19.622;2024-03-02T03:26:58;100186.03;;;9.93;100.00
80102;BME280;69407;44.966;19.622;2024-03-02T03:29:23;100191.41;;;10.09;100.00
80102;BME280;69407;44.966;19.622;2024-03-02T03:31:49;100201.56;;;9.82;100.00
80102;BME280;69407;44.966;19.622;2024-03-02T03:34:14;100199.47;;;9.88;100.00
80102;BME280;69407;44.966;19.622;2024-03-02T03:36:41;100193.66;;;9.82;100.00
80102;BME280;69407;44.966;19.622;2024-03-02T03:39:07;100199.69;;;9.84;100.00
80102;BME280;69407;44.966;19.622;2024-03-02T03:41:32;100191.13;;;9.61;100.00
80102;BME280;69407;44.966;19.622;2024-03-02T03:43:58;100201.00;;;9.75;100.00
80102;BME280;69407;44.966;19.622;2024-03-02T03:46:23;100190.53;;;9.74;100.00
80102;BME280;69407;44.966;19.622;2024-03-02T03:48:49;100198.53;;;9.89;100.00
80102;BME280;69407;44.966;19.622;2024-03-02T03:51:14;100208.06;;;9.75;100.00
80102;BME280;69407;44.966;19.622;2024-03-02T03:53:40;100203.53;;;9.95;100.00
80102;BME280;69407;44.966;19.622;2024-03-02T03:56:05;100202.72;;;9.76;100.00
80102;BME280;69407;44.966;19.622;2024-03-02T03:58:31;100206.91;;;9.80;100.00
80102;BME280;69407;44.966;19.622;2024-03-02T04:00:57;100206.00;;;9.81;100.00
80102;BME280;69407;44.966;19.622;2024-03-02T04:03:22;100209.63;;;9.79;100.00
80102;BME280;69407;44.966;19.622;2024-03-02T04:05:48;100202.09;;;9.71;100.00
80102;BME280;69407;44.966;19.622;2024-03-02T04:08:13;100210.53;;;9.60;100.00
80102;BME280;69407;44.966;19.622;2024-03-02T04:10:39;100204.94;;;9.66;100.00
80102;BME280;69407;44.966;19.622;2024-03-02T04:13:05;100209.94;;;9.73;100.00
80102;BME280;69407;44.966;19.622;2024-03-02T04:15:31;100211.47;;;9.77;100.00
80102;BME280;69407;44.966;19.622;2024-03-02T04:17:56;100214.09;;;9.59;100.00
80102;BME280;69407;44.966;19.622;2024-03-02T04:20:22;100217.69;;;9.76;100.00
80102;BME280;69407;44.966;19.622;2024-03-02T04:22:47;100219.09;;;9.83;100.00
80102;BME280;69407;44.966;19.622;2024-03-02T04:25:13;100217.06;;;9.71;100.00
80102;BME280;69407;44.966;19.622;2024-03-02T04:27:38;100218.38;;;9.79;100.00
80102;BME280;69407;44.966;19.622;2024-03-02T04:30:05;100216.78;;;9.94;100.00
80102;BME280;69407;44.966;19.622;2024-03-02T04:32:30;100220.75;;;9.66;100.00
80102;BME280;69407;44.966;19.622;2024-03-02T04:34:56;100215.03;;;9.58;100.00
80102;BME280;69407;44.966;19.622;2024-03-02T04:37:22;100214.16;;;9.58;100.00
80102;BME280;69407;44.966;19.622;2024-03-02T04:39:47;100217.44;;;9.63;100.00
80102;BME280;69407;44.966;19.622;2024-03-02T04:42:13;100215.06;;;9.93;100.00
80102;BME280;69407;44.966;19.622;2024-03-02T04:44:38;100213.66;;;9.86;100.00
80102;BME280;69407;44.966;19.622;2024-03-02T04:47:04;100205.41;;;9.75;100.00
80102;BME280;69407;44.966;19.622;2024-03-02T04:49:30;100214.81;;;9.80;100.00
80102;BME280;69407;44.966;19.622;2024-03-02T04:51:56;100215.88;;;9.95;100.00
80102;BME280;69407;44.966;19.622;2024-03-02T04:54:22;100217.84;;;9.73;100.00
80102;BME280;69407;44.966;19.622;2024-03-02T04:56:47;100221.22;;;9.57;100.00
80102;BME280;69407;44.966;19.622;2024-03-02T04:59:19;100223.19;;;9.71;100.00
80102;BME280;69407;44.966;19.622;2024-03-02T05:01:45;100221.22;;;9.93;100.00
80102;BME280;69407;44.966;19.622;2024-03-02T05:04:11;100219.47;;;9.75;100.00
80102;BME280;69407;44.966;19.622;2024-03-02T05:06:40;100230.63;;;9.63;100.00
80102;BME280;69407;44.966;19.622;2024-03-02T05:09:06;100230.72;;;9.79;100.00
80102;BME280;69407;44.966;19.622;2024-03-02T05:11:32;100234.88;;;9.65;100.00
80102;BME280;69407;44.966;19.622;2024-03-02T05:14:04;100233.53;;;9.76;100.00
80102;BME280;69407;44.966;19.622;2024-03-02T05:16:33;100232.66;;;9.75;100.00
80102;BME280;69407;44.966;19.622;2024-03-02T05:18:59;100237.91;;;9.58;100.00
80102;BME280;69407;44.966;19.622;2024-03-02T05:21:24;100237.06;;;9.57;100.00
80102;BME280;69407;44.966;19.622;2024-03-02T05:23:49;100235.75;;;9.66;100.00
80102;BME280;69407;44.966;19.622;2024-03-02T05:26:15;100237.78;;;9.78;100.00
80102;BME280;69407;44.966;19.622;2024-03-02T05:28:40;100244.03;;;9.58;100.00
80102;BME280;69407;44.966;19.622;2024-03-02T05:31:06;100249.84;;;9.84;100.00
80102;BME280;69407;44.966;19.622;2024-03-02T05:33:32;100257.88;;;9.81;100.00
80102;BME280;69407;44.966;19.622;2024-03-02T05:35:58;100264.13;;;9.61;100.00
80102;BME280;69407;44.966;19.622;2024-03-02T05:38:24;100268.16;;;9.87;100.00
80102;BME280;69407;44.966;19.622;2024-03-02T05:40:49;100273.94;;;9.95;100.00
80102;BME280;69407;44.966;19.622;2024-03-02T05:43:15;100286.28;;;9.57;100.00
80102;BME280;69407;44.966;19.622;2024-03-02T05:45:40;100289.16;;;9.52;100.00
80102;BME280;69407;44.966;19.622;2024-03-02T05:48:09;100293.50;;;9.72;100.00
80102;BME280;69407;44.966;19.622;2024-03-02T05:50:35;100298.34;;;9.81;100.00
80102;BME280;69407;44.966;19.622;2024-03-02T05:53:00;100295.09;;;9.57;100.00
80102;BME280;69407;44.966;19.622;2024-03-02T05:55:26;100306.03;;;9.67;100.00
80102;BME280;69407;44.966;19.622;2024-03-02T05:57:51;100311.16;;;9.89;100.00
80102;BME280;69407;44.966;19.622;2024-03-02T06:00:32;100316.09;;;9.96;100.00
80102;BME280;69407;44.966;19.622;2024-03-02T06:02:58;100313.56;;;10.12;100.00
80102;BME280;69407;44.966;19.622;2024-03-02T06:05:24;100322.00;;;10.38;100.00
80102;BME280;69407;44.966;19.622;2024-03-02T06:07:50;100324.03;;;10.33;100.00
80102;BME280;69407;44.966;19.622;2024-03-02T06:10:15;100317.66;;;10.89;100.00
80102;BME280;69407;44.966;19.622;2024-03-02T06:12:41;100324.50;;;10.75;100.00
80102;BME280;69407;44.966;19.622;2024-03-02T06:15:07;100321.97;;;10.20;100.00
80102;BME280;69407;44.966;19.622;2024-03-02T06:17:37;100327.69;;;10.11;100.00
80102;BME280;69407;44.966;19.622;2024-03-02T06:20:03;100330.94;;;10.16;100.00
80102;BME280;69407;44.966;19.622;2024-03-02T06:22:28;100326.50;;;9.99;100.00
80102;BME280;69407;44.966;19.622;2024-03-02T06:24:54;100323.78;;;10.37;100.00
80102;BME280;69407;44.966;19.622;2024-03-02T06:27:20;100324.47;;;10.05;100.00
80102;BME280;69407;44.966;19.622;2024-03-02T06:29:45;100324.25;;;10.28;100.00
80102;BME280;69407;44.966;19.622;2024-03-02T06:32:11;100333.41;;;10.02;100.00
80102;BME280;69407;44.966;19.622;2024-03-02T06:34:36;100330.16;;;9.78;100.00
80102;BME280;69407;44.966;19.622;2024-03-02T06:37:02;100337.28;;;9.95;100.00
80102;BME280;69407;44.966;19.622;2024-03-02T06:39:27;100331.28;;;10.64;100.00
80102;BME280;69407;44.966;19.622;2024-03-02T06:41:53;100334.94;;;10.61;100.00
80102;BME280;69407;44.966;19.622;2024-03-02T06:44:18;100334.16;;;10.59;100.00
80102;BME280;69407;44.966;19.622;2024-03-02T06:46:43;100333.38;;;10.92;100.00
80102;BME280;69407;44.966;19.622;2024-03-02T06:49:09;100335.25;;;11.23;100.00
80102;BME280;69407;44.966;19.622;2024-03-02T06:51:36;100340.53;;;10.72;100.00
80102;BME280;69407;44.966;19.622;2024-03-02T06:54:01;100344.28;;;10.68;100.00
80102;BME280;69407;44.966;19.622;2024-03-02T06:56:27;100343.31;;;11.04;100.00
80102;BME280;69407;44.966;19.622;2024-03-02T06:58:52;100350.94;;;10.75;100.00
80102;BME280;69407;44.966;19.622;2024-03-02T07:01:18;100349.28;;;11.07;100.00
80102;BME280;69407;44.966;19.622;2024-03-02T07:03:45;100351.72;;;10.95;100.00
80102;BME280;69407;44.966;19.622;2024-03-02T07:06:11;100359.88;;;11.07;100.00
80102;BME280;69407;44.966;19.622;2024-03-02T07:08:36;100356.78;;;10.82;100.00
80102;BME280;69407;44.966;19.622;2024-03-02T07:11:02;100361.44;;;11.60;100.00
80102;BME280;69407;44.966;19.622;2024-03-02T07:13:27;100358.59;;;11.96;100.00
80102;BME280;69407;44.966;19.622;2024-03-02T07:15:52;100358.50;;;12.75;100.00
80102;BME280;69407;44.966;19.622;2024-03-02T07:18:37;100364.09;;;11.60;100.00
80102;BME280;69407;44.966;19.622;2024-03-02T07:21:07;100354.19;;;13.61;100.00
80102;BME280;69407;44.966;19.622;2024-03-02T07:23:32;100341.53;;;15.50;92.20
80102;BME280;69407;44.966;19.622;2024-03-02T07:25:58;100350.59;;;14.45;87.54
80102;BME280;69407;44.966;19.622;2024-03-02T07:28:25;100351.63;;;14.69;94.36
80102;BME280;69407;44.966;19.622;2024-03-02T07:31:01;100336.31;;;15.87;82.81
80102;BME280;69407;44.966;19.622;2024-03-02T07:33:27;100337.84;;;15.28;88.64
80102;BME280;69407;44.966;19.622;2024-03-02T07:35:54;100339.31;;;16.54;77.35
80102;BME280;69407;44.966;19.622;2024-03-02T07:38:20;100334.63;;;16.93;73.84
80102;BME280;69407;44.966;19.622;2024-03-02T07:40:46;100336.50;;;18.80;66.16
80102;BME280;69407;44.966;19.622;2024-03-02T07:43:12;100334.56;;;19.94;54.85
80102;BME280;69407;44.966;19.622;2024-03-02T07:45:38;100345.31;;;18.59;60.96
80102;BME280;69407;44.966;19.622;2024-03-02T07:48:03;100341.03;;;20.90;50.19
80102;BME280;69407;44.966;19.622;2024-03-02T07:50:29;100333.25;;;24.75;44.39
80102;BME280;69407;44.966;19.622;2024-03-02T07:53:03;100333.25;;;-144.85;44.39
80102;BME280;69407;44.966;19.622;2024-03-02T07:55:29;100339.72;;;21.32;49.08
80102;BME280;69407;44.966;19.622;2024-03-02T07:57:55;100340.09;;;23.79;43.47
80102;BME280;69407;44.966;19.622;2024-03-02T08:00:22;100355.84;;;18.08;56.63
80102;BME280;69407;44.966;19.622;2024-03-02T08:02:48;100345.25;;;21.12;53.31
80102;BME280;69407;44.966;19.622;2024-03-02T08:05:13;100352.31;;;19.76;53.75
80102;BME280;69407;44.966;19.622;2024-03-02T08:07:39;100345.03;;;23.91;44.07
80102;BME280;69407;44.966;19.622;2024-03-02T08:10:05;100342.97;;;25.58;40.38
80102;BME280;69407;44.966;19.622;2024-03-02T08:12:31;100347.44;;;24.61;42.61
80102;BME280;69407;44.966;19.622;2024-03-02T08:14:56;100350.63;;;22.76;43.05
80102;BME280;69407;44.966;19.622;2024-03-02T08:17:21;100339.31;;;25.34;38.02
80102;BME280;69407;44.966;19.622;2024-03-02T08:19:47;100351.00;;;24.19;40.92
80102;BME280;69407;44.966;19.622;2024-03-02T08:22:14;100359.81;;;21.09;42.36
80102;BME280;69407;44.966;19.622;2024-03-02T08:24:40;100348.91;;;24.39;41.57
80102;BME280;69407;44.966;19.622;2024-03-02T08:27:06;100353.41;;;27.16;36.46
80102;BME280;69407;44.966;19.622;2024-03-02T08:29:31;100352.81;;;29.24;32.48
80102;BME280;69407;44.966;19.622;2024-03-02T08:31:57;100341.50;;;28.20;33.02
80102;BME280;69407;44.966;19.622;2024-03-02T08:34:22;100348.22;;;27.06;31.65
80102;BME280;69407;44.966;19.622;2024-03-02T08:36:48;100344.00;;;26.27;33.80
80102;BME280;69407;44.966;19.622;2024-03-02T08:39:14;100351.13;;;26.59;33.42
80102;BME280;69407;44.966;19.622;2024-03-02T08:41:46;100346.69;;;25.49;36.08
80102;BME280;69407;44.966;19.622;2024-03-02T08:44:13;100348.94;;;27.97;33.82
80102;BME280;69407;44.966;19.622;2024-03-02T08:46:39;100339.63;;;26.80;36.03
80102;BME280;69407;44.966;19.622;2024-03-02T08:49:05;100342.19;;;28.08;31.38
80102;BME280;69407;44.966;19.622;2024-03-02T08:51:31;100344.91;;;24.84;36.02
80102;BME280;69407;44.966;19.622;2024-03-02T08:53:57;100335.56;;;28.89;31.03
80102;BME280;69407;44.966;19.622;2024-03-02T08:56:24;100344.25;;;25.78;35.62
80102;BME280;69407;44.966;19.622;2024-03-02T08:58:50;100342.88;;;24.03;38.03
80102;BME280;69407;44.966;19.622;2024-03-02T09:01:16;100353.72;;;22.46;40.89
80102;BME280;69407;44.966;19.622;2024-03-02T09:03:42;100349.97;;;24.63;37.00
80102;BME280;69407;44.966;19.622;2024-03-02T09:06:11;100334.50;;;33.02;27.21
80102;BME280;69407;44.966;19.622;2024-03-02T09:08:37;100331.28;;;30.66;28.01
80102;BME280;69407;44.966;19.622;2024-03-02T09:11:07;100349.66;;;26.48;34.85
80102;BME280;69407;44.966;19.622;2024-03-02T09:13:33;100338.19;;;29.60;30.36
80102;BME280;69407;44.966;19.622;2024-03-02T09:15:59;100332.72;;;28.03;31.99
80102;BME280;69407;44.966;19.622;2024-03-02T09:18:24;100345.75;;;26.51;33.91
80102;BME280;69407;44.966;19.622;2024-03-02T09:20:50;100350.09;;;26.60;33.16
80102;BME280;69407;44.966;19.622;2024-03-02T09:23:15;100347.22;;;27.22;31.65
80102;BME280;69407;44.966;19.622;2024-03-02T09:25:40;100340.22;;;29.23;31.64
80102;BME280;69407;44.966;19.622;2024-03-02T09:28:06;100344.09;;;27.78;32.75
80102;BME280;69407;44.966;19.622;2024-03-02T09:30:32;100347.72;;;24.42;37.45
80102;BME280;69407;44.966;19.622;2024-03-02T09:32:58;100361.19;;;20.26;45.84
80102;BME280;69407;44.966;19.622;2024-03-02T09:35:24;100363.84;;;18.51;55.06
80102;BME280;69407;44.966;19.622;2024-03-02T09:37:50;100363.34;;;18.03;61.61
80102;BME280;69407;44.966;19.622;2024-03-02T09:40:16;100367.78;;;18.79;60.11
80102;BME280;69407;44.966;19.622;2024-03-02T09:42:41;100363.75;;;18.85;64.22
80102;BME280;69407;44.966;19.622;2024-03-02T09:45:09;100366.28;;;18.54;59.00
80102;BME280;69407;44.966;19.622;2024-03-02T09:47:34;100365.94;;;17.60;66.27
80102;BME280;69407;44.966;19.622;2024-03-02T09:50:00;100368.09;;;18.10;69.41
80102;BME280;69407;44.966;19.622;2024-03-02T09:52:26;100368.44;;;18.60;66.88
80102;BME280;69407;44.966;19.622;2024-03-02T09:54:51;100369.91;;;17.54;69.07
80102;BME280;69407;44.966;19.622;2024-03-02T09:57:17;100361.47;;;17.82;69.47
80102;BME280;69407;44.966;19.622;2024-03-02T09:59:42;100364.13;;;18.80;65.74
80102;BME280;69407;44.966;19.622;2024-03-02T10:02:08;100356.44;;;18.55;65.80
80102;BME280;69407;44.966;19.622;2024-03-02T10:04:34;100357.94;;;17.93;70.64
80102;BME280;69407;44.966;19.622;2024-03-02T10:07:18;100360.56;;;18.48;66.43
80102;BME280;69407;44.966;19.622;2024-03-02T10:09:46;100360.63;;;17.71;71.09
80102;BME280;69407;44.966;19.622;2024-03-02T10:12:12;100367.50;;;18.18;69.25
80102;BME280;69407;44.966;19.622;2024-03-02T10:14:40;100361.69;;;17.57;69.19
80102;BME280;69407;44.966;19.622;2024-03-02T10:17:07;100357.94;;;18.36;71.30
80102;BME280;69407;44.966;19.622;2024-03-02T10:19:34;100357.72;;;18.17;67.06
80102;BME280;69407;44.966;19.622;2024-03-02T10:22:12;100362.66;;;17.90;69.21
80102;BME280;69407;44.966;19.622;2024-03-02T10:24:42;100359.59;;;17.61;72.39
80102;BME280;69407;44.966;19.622;2024-03-02T10:29:41;100359.56;;;18.71;67.22
80102;BME280;69407;44.966;19.622;2024-03-02T10:32:10;100358.63;;;17.62;69.46
80102;BME280;69407;44.966;19.622;2024-03-02T10:34:45;100353.75;;;18.11;71.08
80102;BME280;69407;44.966;19.622;2024-03-02T10:37:11;100345.56;;;18.24;69.17
80102;BME280;69407;44.966;19.622;2024-03-02T10:39:37;100347.81;;;17.63;70.10
80102;BME280;69407;44.966;19.622;2024-03-02T10:42:06;100347.72;;;18.41;67.41
80102;BME280;69407;44.966;19.622;2024-03-02T10:44:32;100347.91;;;19.44;69.13
80102;BME280;69407;44.966;19.622;2024-03-02T10:47:02;100345.25;;;19.23;62.13
80102;BME280;69407;44.966;19.622;2024-03-02T10:49:31;100344.94;;;19.68;71.59
80102;BME280;69407;44.966;19.622;2024-03-02T10:51:58;100344.81;;;18.97;63.18
80102;BME280;69407;44.966;19.622;2024-03-02T10:54:24;100333.75;;;17.95;68.09
80102;BME280;69407;44.966;19.622;2024-03-02T10:56:53;100342.06;;;18.67;67.42
80102;BME280;69407;44.966;19.622;2024-03-02T11:01:50;100333.69;;;19.53;67.70
80102;BME280;69407;44.966;19.622;2024-03-02T11:04:18;100334.09;;;18.97;64.41
80102;BME280;69407;44.966;19.622;2024-03-02T11:06:49;100335.81;;;18.34;68.62
80102;BME280;69407;44.966;19.622;2024-03-02T11:09:19;100327.59;;;19.21;64.65
80102;BME280;69407;44.966;19.622;2024-03-02T11:11:54;100329.66;;;19.59;68.16
80102;BME280;69407;44.966;19.622;2024-03-02T11:14:24;100319.84;;;19.79;60.49
80102;BME280;69407;44.966;19.622;2024-03-02T11:16:51;100325.97;;;19.90;61.92
80102;BME280;69407;44.966;19.622;2024-03-02T11:19:17;100317.56;;;20.24;60.48
80102;BME280;69407;44.966;19.622;2024-03-02T11:21:44;100321.88;;;19.96;60.64
80102;BME280;69407;44.966;19.622;2024-03-02T11:24:37;100323.16;;;20.02;62.87
80102;BME280;69407;44.966;19.622;2024-03-02T11:27:04;100323.28;;;19.90;56.60
80102;BME280;69407;44.966;19.622;2024-03-02T11:32:03;100326.50;;;19.54;51.42
80102;BME280;69407;44.966;19.622;2024-03-02T11:34:35;100316.81;;;20.22;55.63
80102;BME280;69407;44.966;19.622;2024-03-02T11:37:02;100322.13;;;19.01;50.60
80102;BME280;69407;44.966;19.622;2024-03-02T11:39:28;100324.56;;;18.84;52.89
80102;BME280;69407;44.966;19.622;2024-03-02T11:41:57;100311.56;;;19.92;53.46
80102;BME280;69407;44.966;19.622;2024-03-02T11:44:27;100310.34;;;20.25;51.89
80102;BME280;69407;44.966;19.622;2024-03-02T11:46:58;100318.59;;;19.83;53.06
80102;BME280;69407;44.966;19.622;2024-03-02T11:52:05;100309.69;;;20.61;54.82
80102;BME280;69407;44.966;19.622;2024-03-02T11:54:35;100315.34;;;20.48;56.21
80102;BME280;69407;44.966;19.622;2024-03-02T11:57:02;100312.47;;;20.31;57.20
80102;BME280;69407;44.966;19.622;2024-03-02T11:59:31;100307.97;;;19.72;53.81
80102;BME280;69407;44.966;19.622;2024-03-02T12:01:57;100306.72;;;20.64;52.19
80102;BME280;69407;44.966;19.622;2024-03-02T12:04:23;100301.91;;;20.68;51.57
80102;BME280;69407;44.966;19.622;2024-03-02T12:06:56;100300.50;;;20.54;51.33
80102;BME280;69407;44.966;19.622;2024-03-02T12:09:28;100299.59;;;20.83;50.36
80102;BME280;69407;44.966;19.622;2024-03-02T12:12:09;100297.06;;;20.13;50.79
80102;BME280;69407;44.966;19.622;2024-03-02T12:14:38;100303.75;;;19.48;48.80
80102;BME280;69407;44.966;19.622;2024-03-02T12:17:05;100299.47;;;20.16;46.83
80102;BME280;69407;44.966;19.622;2024-03-02T12:19:32;100297.00;;;19.84;48.72
80102;BME280;69407;44.966;19.622;2024-03-02T12:21:59;100298.56;;;19.87;47.34
80102;BME280;69407;44.966;19.622;2024-03-02T12:24:27;100296.81;;;20.36;49.07
80102;BME280;69407;44.966;19.622;2024-03-02T12:26:53;100284.38;;;20.73;50.65
80102;BME280;69407;44.966;19.622;2024-03-02T12:29:20;100295.41;;;19.63;45.16
80102;BME280;69407;44.966;19.622;2024-03-02T12:31:49;100298.06;;;20.80;49.04
80102;BME280;69407;44.966;19.622;2024-03-02T12:34:16;100296.53;;;20.58;46.75
80102;BME280;69407;44.966;19.622;2024-03-02T12:36:42;100293.19;;;21.13;46.25
80102;BME280;69407;44.966;19.622;2024-03-02T12:39:09;100294.06;;;20.94;47.45
80102;BME280;69407;44.966;19.622;2024-03-02T12:41:38;100286.69;;;21.15;45.94
80102;BME280;69407;44.966;19.622;2024-03-02T12:44:04;100290.97;;;20.98;45.62
80102;BME280;69407;44.966;19.622;2024-03-02T12:46:31;100286.28;;;21.10;46.32
80102;BME280;69407;44.966;19.622;2024-03-02T12:48:56;100292.16;;;20.57;42.84